sensor_id;sensor_type;location;lat;lon;timestamp;P1;durP1;ratioP1;P2;durP2;ratioP2
77701;SDS011;66868;42.708;23.404;2024-02-14T00:00:45;5.97;;;5.53;;
77701;SDS011;66868;42.708;23.404;2024-02-14T00:03:11;11.35;;;6.20;;
77701;SDS011;66868;42.708;23.404;2024-02-14T00:05:36;5.97;;;5.45;;
77701;SDS011;66868;42.708;23.404;2024-02-14T00:08:02;6.30;;;5.72;;
77701;SDS011;66868;42.708;23.404;2024-02-14T00:10:28;6.67;;;6.07;;
77701;SDS011;66868;42.708;23.404;2024-02-14T00:12:54;6.72;;;6.13;;
77701;SDS011;66868;42.708;23.404;2024-02-14T00:15:19;7.10;;;6.40;;
77701;SDS011;66868;42.708;23.404;2024-02-14T00:17:45;9.00;;;6.63;;
77701;SDS011;66868;42.708;23.404;2024-02-14T00:20:10;7.38;;;6.57;;
77701;SDS011;66868;42.708;23.404;2024-02-14T00:22:37;6.05;;;5.55;;
77701;SDS011;66868;42.708;23.404;2024-02-14T00:25:04;6.40;;;5.45;;
77701;SDS011;66868;42.708;23.404;2024-02-14T00:27:30;7.30;;;6.10;;
77701;SDS011;66868;42.708;23.404;2024-02-14T00:29:55;7.45;;;5.38;;
77701;SDS011;66868;42.708;23.404;2024-02-14T00:32:21;6.10;;;5.60;;
77701;SDS011;66868;42.708;23.404;2024-02-14T00:34:47;8.15;;;6.82;;
77701;SDS011;66868;42.708;23.404;2024-02-14T00:37:14;6.32;;;5.75;;
77701;SDS011;66868;42.708;23.404;2024-02-14T00:39:39;6.57;;;5.95;;
77701;SDS011;66868;42.708;23.404;2024-02-14T00:42:05;12.38;;;6.65;;
77701;SDS011;66868;42.708;23.404;2024-02-14T00:44:30;6.00;;;5.47;;
77701;SDS011;66868;42.708;23.404;2024-02-14T00:46:57;7.25;;;5.85;;
77701;SDS011;66868;42.708;23.404;2024-02-14T00:49:27;5.53;;;5.13;;
77701;SDS011;66868;42.708;23.404;2024-02-14T00:51:52;7.28;;;6.10;;
77701;SDS011;66868;42.708;23.404;2024-02-14T00:54:18;6.55;;;5.95;;
77701;SDS011;66868;42.708;23.404;2024-02-14T00:56:43;7.55;;;6.28;;
77701;SDS011;66868;42.708;23.404;2024-02-14T00:59:09;7.78;;;6.75;;
77701;SDS011;66868;42.708;23.404;2024-02-14T01:01:34;7.45;;;6.32;;
77701;SDS011;66868;42.708;23.404;2024-02-14T01:04:00;6.60;;;5.97;;
77701;SDS011;66868;42.708;23.404;2024-02-14T01:06:26;6.22;;;5.65;;
77701;SDS011;66868;42.708;23.404;2024-02-14T01:08:51;6.35;;;5.75;;
77701;SDS011;66868;42.708;23.404;2024-02-14T01:11:17;6.70;;;6.00;;
77701;SDS011;66868;42.708;23.404;2024-02-14T01:13:42;6.38;;;5.85;;
77701;SDS011;66868;42.708;23.404;2024-02-14T01:16:08;6.82;;;6.18;;
77701;SDS011;66868;42.708;23.404;2024-02-14T01:18:34;6.93;;;5.72;;
77701;SDS011;66868;42.708;23.404;2024-02-14T01:21:00;6.32;;;5.82;;
77701;SDS011;66868;42.708;23.404;2024-02-14T01:23:26;7.38;;;6.05;;
77701;SDS011;66868;42.708;23.404;2024-02-14T01:25:52;7.00;;;6.28;;
77701;SDS011;66868;42.708;23.404;2024-02-14T01:28:19;6.57;;;5.97;;
77701;SDS011;66868;42.708;23.404;2024-02-14T01:30:45;7.72;;;7.03;;
77701;SDS011;66868;42.708;23.404;2024-02-14T01:33:10;8.02;;;6.90;;
77701;SDS011;66868;42.708;23.404;2024-02-14T01:35:36;7.15;;;6.53;;
77701;SDS011;66868;42.708;23.404;2024-02-14T01:38:01;8.85;;;5.95;;
77701;SDS011;66868;42.708;23.404;2024-02-14T01:40:27;9.65;;;7.53;;
77701;SDS011;66868;42.708;23.404;2024-02-14T01:42:53;11.00;;;7.05;;
77701;SDS011;66868;42.708;23.404;2024-02-14T01:45:20;12.43;;;7.70;;
77701;SDS011;66868;42.708;23.404;2024-02-14T01:47:46;8.23;;;7.38;;
77701;SDS011;66868;42.708;23.404;2024-02-14T01:50:12;9.93;;;7.65;;
77701;SDS011;66868;42.708;23.404;2024-02-14T01:52:38;8.27;;;7.00;;
77701;SDS011;66868;42.708;23.404;2024-02-14T01:55:05;13.68;;;7.45;;
77701;SDS011;66868;42.708;23.404;2024-02-14T01:57:31;10.27;;;6.40;;
77701;SDS011;66868;42.708;23.404;2024-02-14T01:59:59;10.60;;;7.72;;
77701;SDS011;66868;42.708;23.404;2024-02-14T02:02:29;7.72;;;6.57;;
77701;SDS011;66868;42.708;23.404;2024-02-14T02:04:55;8.10;;;6.90;;
77701;SDS011;66868;42.708;23.404;2024-02-14T02:07:20;8.30;;;7.43;;
77701;SDS011;66868;42.708;23.404;2024-02-14T02:09:46;8.02;;;7.15;;
77701;SDS011;66868;42.708;23.404;2024-02-14T02:12:11;8.40;;;7.57;;
77701;SDS011;66868;42.708;23.404;2024-02-14T02:14:37;12.07;;;7.90;;
77701;SDS011;66868;42.708;23.404;2024-02-14T02:17:02;7.78;;;6.78;;
77701;SDS011;66868;42.708;23.404;2024-02-14T02:19:33;8.77;;;7.70;;
77701;SDS011;66868;42.708;23.404;2024-02-14T02:21:59;8.23;;;6.97;;
77701;SDS011;66868;42.708;23.404;2024-02-14T02:24:26;14.07;;;6.70;;
77701;SDS011;66868;42.708;23.404;2024-02-14T02:26:51;10.68;;;7.75;;
77701;SDS011;66868;42.708;23.404;2024-02-14T02:29:16;8.82;;;7.07;;
77701;SDS011;66868;42.708;23.404;2024-02-14T02:31:44;9.25;;;8.13;;
77701;SDS011;66868;42.708;23.404;2024-02-14T02:34:10;8.50;;;7.63;;
77701;SDS011;66868;42.708;23.404;2024-02-14T02:36:36;11.05;;;7.47;;
77701;SDS011;66868;42.708;23.404;2024-02-14T02:39:03;9.57;;;7.75;;
77701;SDS011;66868;42.708;23.404;2024-02-14T02:41:30;12.45;;;7.82;;
77701;SDS011;66868;42.708;23.404;2024-02-14T02:43:56;8.88;;;7.68;;
77701;SDS011;66868;42.708;23.404;2024-02-14T02:46:22;8.75;;;7.38;;
77701;SDS011;66868;42.708;23.404;2024-02-14T02:48:48;8.98;;;7.07;;
77701;SDS011;66868;42.708;23.404;2024-02-14T02:51:16;9.23;;;7.65;;
77701;SDS011;66868;42.708;23.404;2024-02-14T02:53:42;11.00;;;8.20;;
77701;SDS011;66868;42.708;23.404;2024-02-14T02:56:08;12.18;;;8.13;;
77701;SDS011;66868;42.708;23.404;2024-02-14T02:58:33;10.90;;;7.88;;
77701;SDS011;66868;42.708;23.404;2024-02-14T03:00:59;10.02;;;8.23;;
77701;SDS011;66868;42.708;23.404;2024-02-14T03:03:24;9.75;;;8.00;;
77701;SDS011;66868;42.708;23.404;2024-02-14T03:05:52;10.40;;;8.02;;
77701;SDS011;66868;42.708;23.404;2024-02-14T03:08:20;9.20;;;7.63;;
77701;SDS011;66868;42.708;23.404;2024-02-14T03:10:46;14.60;;;8.73;;
77701;SDS011;66868;42.708;23.404;2024-02-14T03:13:12;11.40;;;8.93;;
77701;SDS011;66868;42.708;23.404;2024-02-14T03:15:37;11.13;;;7.97;;
77701;SDS011;66868;42.708;23.404;2024-02-14T03:18:03;9.98;;;8.50;;
77701;SDS011;66868;42.708;23.404;2024-02-14T03:20:33;15.43;;;9.48;;
77701;SDS011;66868;42.708;23.404;2024-02-14T03:23:00;11.20;;;9.40;;
77701;SDS011;66868;42.708;23.404;2024-02-14T03:25:25;9.95;;;8.95;;
77701;SDS011;66868;42.708;23.404;2024-02-14T03:27:51;11.05;;;9.25;;
77701;SDS011;66868;42.708;23.404;2024-02-14T03:30:18;14.18;;;9.18;;
77701;SDS011;66868;42.708;23.404;2024-02-14T03:32:48;15.60;;;9.23;;
77701;SDS011;66868;42.708;23.404;2024-02-14T03:35:14;10.18;;;8.20;;
77701;SDS011;66868;42.708;23.404;2024-02-14T03:37:40;13.80;;;9.75;;
77701;SDS011;66868;42.708;23.404;2024-02-14T03:40:07;11.00;;;8.60;;
77701;SDS011;66868;42.708;23.404;2024-02-14T03:42:34;17.58;;;10.57;;
77701;SDS011;66868;42.708;23.404;2024-02-14T03:45:00;12.48;;;9.95;;
77701;SDS011;66868;42.708;23.404;2024-02-14T03:47:31;11.55;;;9.20;;
77701;SDS011;66868;42.708;23.404;2024-02-14T03:50:00;14.20;;;9.65;;
77701;SDS011;66868;42.708;23.404;2024-02-14T03:52:27;12.45;;;8.80;;
77701;SDS011;66868;42.708;23.404;2024-02-14T03:54:53;8.77;;;7.88;;
77701;SDS011;66868;42.708;23.404;2024-02-14T03:57:18;11.50;;;9.45;;
77701;SDS011;66868;42.708;23.404;2024-02-14T03:59:44;13.85;;;9.55;;
77701;SDS011;66868;42.708;23.404;2024-02-14T04:02:10;12.00;;;9.38;;
77701;SDS011;66868;42.708;23.404;2024-02-14T04:04:42;11.43;;;9.38;;
77701;SDS011;66868;42.708;23.404;2024-02-14T04:07:08;15.40;;;9.38;;
77701;SDS011;66868;42.708;23.404;2024-02-14T04:09:33;12.70;;;8.98;;
77701;SDS011;66868;42.708;23.404;2024-02-14T04:11:59;10.93;;;8.98;;
77701;SDS011;66868;42.708;23.404;2024-02-14T04:14:25;11.00;;;9.23;;
77701;SDS011;66868;42.708;23.404;2024-02-14T04:16:51;11.98;;;9.55;;
77701;SDS011;66868;42.708;23.404;2024-02-14T04:19:16;11.13;;;8.65;;
77701;SDS011;66868;42.708;23.404;2024-02-14T04:21:42;12.68;;;9.35;;
77701;SDS011;66868;42.708;23.404;2024-02-14T04:24:08;13.52;;;9.63;;
77701;SDS011;66868;42.708;23.404;2024-02-14T04:26:34;11.30;;;9.35;;
77701;SDS011;66868;42.708;23.404;2024-02-14T04:28:59;11.90;;;9.77;;
77701;SDS011;66868;42.708;23.404;2024-02-14T04:31:25;14.60;;;10.23;;
77701;SDS011;66868;42.708;23.404;2024-02-14T04:33:52;10.90;;;9.02;;
77701;SDS011;66868;42.708;23.404;2024-02-14T04:36:19;11.65;;;9.15;;
77701;SDS011;66868;42.708;23.404;2024-02-14T04:38:46;15.50;;;10.10;;
77701;SDS011;66868;42.708;23.404;2024-02-14T04:41:12;13.18;;;9.60;;
77701;SDS011;66868;42.708;23.404;2024-02-14T04:43:38;11.10;;;9.02;;
77701;SDS011;66868;42.708;23.404;2024-02-14T04:46:03;13.98;;;11.13;;
77701;SDS011;66868;42.708;23.404;2024-02-14T04:48:32;16.58;;;11.07;;
77701;SDS011;66868;42.708;23.404;2024-02-14T04:50:58;12.90;;;10.13;;
77701;SDS011;66868;42.708;23.404;2024-02-14T04:53:23;13.27;;;10.10;;
77701;SDS011;66868;42.708;23.404;2024-02-14T04:55:49;14.80;;;11.20;;
77701;SDS011;66868;42.708;23.404;2024-02-14T04:58:15;17.52;;;11.18;;
77701;SDS011;66868;42.708;23.404;2024-02-14T05:00:41;13.27;;;10.48;;
77701;SDS011;66868;42.708;23.404;2024-02-14T05:03:06;11.50;;;10.10;;
77701;SDS011;66868;42.708;23.404;2024-02-14T05:05:32;16.10;;;11.80;;
77701;SDS011;66868;42.708;23.404;2024-02-14T05:07:58;17.15;;;11.77;;
77701;SDS011;66868;42.708;23.404;2024-02-14T05:10:24;14.27;;;11.43;;
77701;SDS011;66868;42.708;23.404;2024-02-14T05:12:50;15.67;;;10.63;;
77701;SDS011;66868;42.708;23.404;2024-02-14T05:15:15;16.08;;;11.07;;
77701;SDS011;66868;42.708;23.404;2024-02-14T05:17:44;14.10;;;11.43;;
77701;SDS011;66868;42.708;23.404;2024-02-14T05:20:10;16.87;;;11.37;;
77701;SDS011;66868;42.708;23.404;2024-02-14T05:22:36;14.68;;;10.15;;
77701;SDS011;66868;42.708;23.404;2024-02-14T05:25:03;18.17;;;11.00;;
77701;SDS011;66868;42.708;23.404;2024-02-14T05:27:29;12.55;;;9.85;;
77701;SDS011;66868;42.708;23.404;2024-02-14T05:29:55;16.55;;;12.52;;
77701;SDS011;66868;42.708;23.404;2024-02-14T05:32:21;16.02;;;12.20;;
77701;SDS011;66868;42.708;23.404;2024-02-14T05:34:46;15.25;;;11.20;;
77701;SDS011;66868;42.708;23.404;2024-02-14T05:37:12;16.15;;;11.90;;
77701;SDS011;66868;42.708;23.404;2024-02-14T05:39:38;16.83;;;12.00;;
77701;SDS011;66868;42.708;23.404;2024-02-14T05:42:04;14.73;;;11.98;;
77701;SDS011;66868;42.708;23.404;2024-02-14T05:44:30;17.40;;;11.40;;
77701;SDS011;66868;42.708;23.404;2024-02-14T05:46:56;16.60;;;11.63;;
77701;SDS011;66868;42.708;23.404;2024-02-14T05:49:22;17.73;;;12.05;;
77701;SDS011;66868;42.708;23.404;2024-02-14T05:51:47;16.27;;;12.50;;
77701;SDS011;66868;42.708;23.404;2024-02-14T05:54:13;16.40;;;12.18;;
77701;SDS011;66868;42.708;23.404;2024-02-14T05:56:38;18.13;;;12.87;;
77701;SDS011;66868;42.708;23.404;2024-02-14T05:59:04;18.13;;;13.57;;
77701;SDS011;66868;42.708;23.404;2024-02-14T06:01:30;17.45;;;12.45;;
77701;SDS011;66868;42.708;23.404;2024-02-14T06:03:55;23.83;;;11.82;;
77701;SDS011;66868;42.708;23.404;2024-02-14T06:06:21;17.45;;;11.95;;
77701;SDS011;66868;42.708;23.404;2024-02-14T06:08:46;16.38;;;12.32;;
77701;SDS011;66868;42.708;23.404;2024-02-14T06:11:12;14.47;;;11.07;;
77701;SDS011;66868;42.708;23.404;2024-02-14T06:13:39;15.30;;;11.10;;
77701;SDS011;66868;42.708;23.404;2024-02-14T06:16:05;18.25;;;11.82;;
77701;SDS011;66868;42.708;23.404;2024-02-14T06:18:31;16.35;;;11.57;;
77701;SDS011;66868;42.708;23.404;2024-02-14T06:20:56;16.10;;;11.50;;
77701;SDS011;66868;42.708;23.404;2024-02-14T06:23:22;13.10;;;10.43;;
77701;SDS011;66868;42.708;23.404;2024-02-14T06:25:47;14.57;;;10.73;;
77701;SDS011;66868;42.708;23.404;2024-02-14T06:28:13;14.67;;;11.27;;
77701;SDS011;66868;42.708;23.404;2024-02-14T06:30:38;17.25;;;11.23;;
77701;SDS011;66868;42.708;23.404;2024-02-14T06:33:04;13.73;;;11.15;;
77701;SDS011;66868;42.708;23.404;2024-02-14T06:35:29;19.63;;;12.07;;
77701;SDS011;66868;42.708;23.404;2024-02-14T06:37:55;18.15;;;11.40;;
77701;SDS011;66868;42.708;23.404;2024-02-14T06:40:21;13.50;;;10.98;;
77701;SDS011;66868;42.708;23.404;2024-02-14T06:42:47;14.90;;;10.82;;
77701;SDS011;66868;42.708;23.404;2024-02-14T06:45:15;20.38;;;14.05;;
77701;SDS011;66868;42.708;23.404;2024-02-14T06:47:41;12.40;;;10.30;;
77701;SDS011;66868;42.708;23.404;2024-02-14T06:50:07;14.65;;;10.77;;
77701;SDS011;66868;42.708;23.404;2024-02-14T06:52:33;14.93;;;11.25;;
77701;SDS011;66868;42.708;23.404;2024-02-14T06:54:58;17.50;;;11.30;;
77701;SDS011;66868;42.708;23.404;2024-02-14T06:57:25;12.60;;;10.18;;
77701;SDS011;66868;42.708;23.404;2024-02-14T06:59:50;14.10;;;10.52;;
77701;SDS011;66868;42.708;23.404;2024-02-14T07:02:16;15.20;;;12.23;;
77701;SDS011;66868;42.708;23.404;2024-02-14T07:04:41;14.57;;;11.15;;
77701;SDS011;66868;42.708;23.404;2024-02-14T07:07:07;16.63;;;10.85;;
77701;SDS011;66868;42.708;23.404;2024-02-14T07:09:33;17.42;;;9.82;;
77701;SDS011;66868;42.708;23.404;2024-02-14T07:12:01;11.57;;;8.60;;
77701;SDS011;66868;42.708;23.404;2024-02-14T07:14:27;36.80;;;20.23;;
77701;SDS011;66868;42.708;23.404;2024-02-14T07:16:53;18.63;;;12.23;;
77701;SDS011;66868;42.708;23.404;2024-02-14T07:19:19;12.50;;;9.48;;
77701;SDS011;66868;42.708;23.404;2024-02-14T07:21:44;13.43;;;10.25;;
77701;SDS011;66868;42.708;23.404;2024-02-14T07:24:10;11.63;;;8.90;;
77701;SDS011;66868;42.708;23.404;2024-02-14T07:26:35;11.93;;;9.17;;
77701;SDS011;66868;42.708;23.404;2024-02-14T07:29:01;12.57;;;10.40;;
77701;SDS011;66868;42.708;23.404;2024-02-14T07:31:30;14.40;;;10.70;;
77701;SDS011;66868;42.708;23.404;2024-02-14T07:33:58;15.67;;;9.53;;
77701;SDS011;66868;42.708;23.404;2024-02-14T07:36:23;12.90;;;9.37;;
77701;SDS011;66868;42.708;23.404;2024-02-14T07:38:49;13.68;;;9.20;;
77701;SDS011;66868;42.708;23.404;2024-02-14T07:41:15;16.50;;;8.30;;
77701;SDS011;66868;42.708;23.404;2024-02-14T07:43:40;8.38;;;7.38;;
77701;SDS011;66868;42.708;23.404;2024-02-14T07:46:06;10.10;;;8.15;;
77701;SDS011;66868;42.708;23.404;2024-02-14T07:48:32;9.90;;;8.83;;
77701;SDS011;66868;42.708;23.404;2024-02-14T07:50:58;10.45;;;7.68;;
77701;SDS011;66868;42.708;23.404;2024-02-14T07:53:24;10.27;;;7.87;;
77701;SDS011;66868;42.708;23.404;2024-02-14T07:55:50;9.40;;;8.40;;
77701;SDS011;66868;42.708;23.404;2024-02-14T07:58:17;9.35;;;7.18;;
77701;SDS011;66868;42.708;23.404;2024-02-14T08:00:43;9.98;;;8.10;;
77701;SDS011;66868;42.708;23.404;2024-02-14T08:03:08;8.15;;;6.95;;
77701;SDS011;66868;42.708;23.404;2024-02-14T08:05:34;9.90;;;7.53;;
77701;SDS011;66868;42.708;23.404;2024-02-14T08:07:59;12.18;;;8.50;;
77701;SDS011;66868;42.708;23.404;2024-02-14T08:10:25;11.23;;;8.85;;
77701;SDS011;66868;42.708;23.404;2024-02-14T08:12:50;8.85;;;7.85;;
77701;SDS011;66868;42.708;23.404;2024-02-14T08:15:16;7.78;;;6.82;;
77701;SDS011;66868;42.708;23.404;2024-02-14T08:17:41;8.30;;;7.40;;
77701;SDS011;66868;42.708;23.404;2024-02-14T08:20:07;8.73;;;7.90;;
77701;SDS011;66868;42.708;23.404;2024-02-14T08:22:33;10.55;;;7.13;;
77701;SDS011;66868;42.708;23.404;2024-02-14T08:24:58;8.20;;;7.43;;
77701;SDS011;66868;42.708;23.404;2024-02-14T08:27:24;10.68;;;7.97;;
77701;SDS011;66868;42.708;23.404;2024-02-14T08:29:51;9.40;;;8.45;;
77701;SDS011;66868;42.708;23.404;2024-02-14T08:32:16;8.38;;;7.32;;
77701;SDS011;66868;42.708;23.404;2024-02-14T08:34:41;7.50;;;6.60;;
77701;SDS011;66868;42.708;23.404;2024-02-14T08:37:07;6.72;;;6.13;;
77701;SDS011;66868;42.708;23.404;2024-02-14T08:39:33;9.35;;;7.07;;
77701;SDS011;66868;42.708;23.404;2024-02-14T08:41:59;8.27;;;7.30;;
77701;SDS011;66868;42.708;23.404;2024-02-14T08:44:28;9.13;;;7.00;;
77701;SDS011;66868;42.708;23.404;2024-02-14T08:46:53;10.18;;;6.90;;
77701;SDS011;66868;42.708;23.404;2024-02-14T08:49:19;7.65;;;5.82;;
77701;SDS011;66868;42.708;23.404;2024-02-14T08:51:45;8.60;;;7.43;;
77701;SDS011;66868;42.708;23.404;2024-02-14T08:54:12;8.70;;;6.63;;
77701;SDS011;66868;42.708;23.404;2024-02-14T08:56:38;8.00;;;7.20;;
77701;SDS011;66868;42.708;23.404;2024-02-14T08:59:04;7.80;;;6.87;;
77701;SDS011;66868;42.708;23.404;2024-02-14T09:01:31;8.55;;;7.38;;
77701;SDS011;66868;42.708;23.404;2024-02-14T09:03:57;9.32;;;7.72;;
77701;SDS011;66868;42.708;23.404;2024-02-14T09:06:24;9.33;;;8.00;;
77701;SDS011;66868;42.708;23.404;2024-02-14T09:08:51;9.45;;;6.85;;
77701;SDS011;66868;42.708;23.404;2024-02-14T09:11:17;8.40;;;7.55;;
77701;SDS011;66868;42.708;23.404;2024-02-14T09:13:43;8.65;;;7.05;;
77701;SDS011;66868;42.708;23.404;2024-02-14T09:16:09;7.38;;;6.47;;
77701;SDS011;66868;42.708;23.404;2024-02-14T09:18:35;8.70;;;7.38;;
77701;SDS011;66868;42.708;23.404;2024-02-14T09:21:02;11.95;;;7.90;;
77701;SDS011;66868;42.708;23.404;2024-02-14T09:23:30;7.90;;;7.10;;
77701;SDS011;66868;42.708;23.404;2024-02-14T09:25:57;11.77;;;8.10;;
77701;SDS011;66868;42.708;23.404;2024-02-14T09:28:23;23.50;;;12.80;;
77701;SDS011;66868;42.708;23.404;2024-02-14T09:30:50;15.07;;;10.40;;
77701;SDS011;66868;42.708;23.404;2024-02-14T09:33:15;9.23;;;7.07;;
77701;SDS011;66868;42.708;23.404;2024-02-14T09:35:41;8.13;;;7.32;;
77701;SDS011;66868;42.708;23.404;2024-02-14T09:38:12;10.48;;;8.48;;
77701;SDS011;66868;42.708;23.404;2024-02-14T09:40:38;11.52;;;7.18;;
77701;SDS011;66868;42.708;23.404;2024-02-14T09:43:07;9.60;;;7.85;;
77701;SDS011;66868;42.708;23.404;2024-02-14T09:45:42;11.18;;;8.15;;
77701;SDS011;66868;42.708;23.404;2024-02-14T09:48:10;9.15;;;7.80;;
77701;SDS011;66868;42.708;23.404;2024-02-14T09:50:37;14.60;;;8.50;;
77701;SDS011;66868;42.708;23.404;2024-02-14T09:53:04;11.38;;;6.90;;
77701;SDS011;66868;42.708;23.404;2024-02-14T09:55:32;6.07;;;5.50;;
77701;SDS011;66868;42.708;23.404;2024-02-14T09:57:58;6.53;;;5.93;;
77701;SDS011;66868;42.708;23.404;2024-02-14T10:00:29;7.90;;;6.55;;
77701;SDS011;66868;42.708;23.404;2024-02-14T10:02:56;11.25;;;6.97;;
77701;SDS011;66868;42.708;23.404;2024-02-14T10:05:22;10.20;;;7.50;;
77701;SDS011;66868;42.708;23.404;2024-02-14T10:07:48;13.02;;;7.68;;
77701;SDS011;66868;42.708;23.404;2024-02-14T10:10:13;10.35;;;6.90;;
77701;SDS011;66868;42.708;23.404;2024-02-14T10:12:39;7.13;;;6.40;;
77701;SDS011;66868;42.708;23.404;2024-02-14T10:15:06;10.50;;;7.07;;
77701;SDS011;66868;42.708;23.404;2024-02-14T10:17:33;8.55;;;7.65;;
77701;SDS011;66868;42.708;23.404;2024-02-14T10:19:59;9.13;;;6.57;;
77701;SDS011;66868;42.708;23.404;2024-02-14T10:22:34;6.95;;;5.75;;
77701;SDS011;66868;42.708;23.404;2024-02-14T10:25:03;6.40;;;5.80;;
77701;SDS011;66868;42.708;23.404;2024-02-14T10:27:37;6.28;;;5.78;;
77701;SDS011;66868;42.708;23.404;2024-02-14T10:30:09;8.75;;;7.55;;
77701;SDS011;66868;42.708;23.404;2024-02-14T10:32:44;8.30;;;6.78;;
77701;SDS011;66868;42.708;23.404;2024-02-14T10:35:13;6.25;;;5.75;;
77701;SDS011;66868;42.708;23.404;2024-02-14T10:37:41;7.88;;;6.78;;
77701;SDS011;66868;42.708;23.404;2024-02-14T10:40:07;6.97;;;6.20;;
77701;SDS011;66868;42.708;23.404;2024-02-14T10:42:34;7.68;;;6.97;;
77701;SDS011;66868;42.708;23.404;2024-02-14T10:45:00;8.02;;;6.03;;
77701;SDS011;66868;42.708;23.404;2024-02-14T10:47:30;7.00;;;6.32;;
77701;SDS011;66868;42.708;23.404;2024-02-14T10:50:03;11.48;;;6.95;;
77701;SDS011;66868;42.708;23.404;2024-02-14T10:52:31;9.63;;;7.00;;
77701;SDS011;66868;42.708;23.404;2024-02-14T10:54:59;8.07;;;7.05;;
77701;SDS011;66868;42.708;23.404;2024-02-14T10:57:28;8.32;;;7.20;;
77701;SDS011;66868;42.708;23.404;2024-02-14T10:59:54;7.70;;;6.87;;
77701;SDS011;66868;42.708;23.404;2024-02-14T11:02:22;7.47;;;6.45;;
77701;SDS011;66868;42.708;23.404;2024-02-14T11:04:49;7.13;;;6.43;;
77701;SDS011;66868;42.708;23.404;2024-02-14T11:07:19;7.13;;;6.30;;
77701;SDS011;66868;42.708;23.404;2024-02-14T11:09:47;6.70;;;5.87;;
77701;SDS011;66868;42.708;23.404;2024-02-14T11:12:13;6.70;;;6.00;;
77701;SDS011;66868;42.708;23.404;2024-02-14T11:14:41;9.30;;;7.43;;
77701;SDS011;66868;42.708;23.404;2024-02-14T11:17:13;7.22;;;6.45;;
77701;SDS011;66868;42.708;23.404;2024-02-14T11:19:39;6.80;;;6.10;;
77701;SDS011;66868;42.708;23.404;2024-02-14T11:22:12;7.65;;;6.40;;
77701;SDS011;66868;42.708;23.404;2024-02-14T11:24:45;8.23;;;6.63;;
77701;SDS011;66868;42.708;23.404;2024-02-14T11:27:11;16.92;;;10.32;;
77701;SDS011;66868;42.708;23.404;2024-02-14T11:29:40;11.80;;;8.68;;
77701;SDS011;66868;42.708;23.404;2024-02-14T11:32:11;7.33;;;6.73;;
77701;SDS011;66868;42.708;23.404;2024-02-14T11:34:36;10.10;;;6.93;;
77701;SDS011;66868;42.708;23.404;2024-02-14T11:37:02;14.90;;;6.95;;
77701;SDS011;66868;42.708;23.404;2024-02-14T11:39:29;6.30;;;5.80;;
77701;SDS011;66868;42.708;23.404;2024-02-14T11:41:56;9.65;;;6.55;;
77701;SDS011;66868;42.708;23.404;2024-02-14T11:44:23;10.20;;;7.45;;
77701;SDS011;66868;42.708;23.404;2024-02-14T11:46:50;9.05;;;7.50;;
77701;SDS011;66868;42.708;23.404;2024-02-14T11:49:16;9.95;;;6.68;;
77701;SDS011;66868;42.708;23.404;2024-02-14T11:51:42;7.93;;;5.88;;
77701;SDS011;66868;42.708;23.404;2024-02-14T11:54:07;8.90;;;7.28;;
77701;SDS011;66868;42.708;23.404;2024-02-14T11:56:35;9.93;;;7.50;;
77701;SDS011;66868;42.708;23.404;2024-02-14T11:59:02;11.10;;;7.40;;
77701;SDS011;66868;42.708;23.404;2024-02-14T12:01:36;7.88;;;5.97;;
77701;SDS011;66868;42.708;23.404;2024-02-14T12:04:06;8.40;;;6.30;;
77701;SDS011;66868;42.708;23.404;2024-02-14T12:06:36;9.38;;;6.75;;
77701;SDS011;66868;42.708;23.404;2024-02-14T12:09:06;8.43;;;7.60;;
77701;SDS011;66868;42.708;23.404;2024-02-14T12:11:36;7.43;;;6.55;;
77701;SDS011;66868;42.708;23.404;2024-02-14T12:14:03;11.55;;;6.50;;
77701;SDS011;66868;42.708;23.404;2024-02-14T12:16:30;7.45;;;6.30;;
77701;SDS011;66868;42.708;23.404;2024-02-14T12:19:03;6.63;;;5.80;;
77701;SDS011;66868;42.708;23.404;2024-02-14T12:21:33;6.63;;;6.10;;
77701;SDS011;66868;42.708;23.404;2024-02-14T12:24:00;8.18;;;5.75;;
77701;SDS011;66868;42.708;23.404;2024-02-14T12:26:25;7.78;;;5.70;;
77701;SDS011;66868;42.708;23.404;2024-02-14T12:28:51;5.50;;;5.00;;
77701;SDS011;66868;42.708;23.404;2024-02-14T12:31:24;8.60;;;5.20;;
77701;SDS011;66868;42.708;23.404;2024-02-14T12:33:49;6.78;;;5.63;;
77701;SDS011;66868;42.708;23.404;2024-02-14T12:36:17;6.80;;;6.07;;
77701;SDS011;66868;42.708;23.404;2024-02-14T12:38:43;8.05;;;6.32;;
77701;SDS011;66868;42.708;23.404;2024-02-14T12:41:09;7.18;;;6.22;;
77701;SDS011;66868;42.708;23.404;2024-02-14T12:43:35;7.80;;;5.50;;
77701;SDS011;66868;42.708;23.404;2024-02-14T12:46:01;8.52;;;6.30;;
77701;SDS011;66868;42.708;23.404;2024-02-14T12:48:26;6.55;;;5.95;;
77701;SDS011;66868;42.708;23.404;2024-02-14T12:50:53;9.93;;;6.55;;
77701;SDS011;66868;42.708;23.404;2024-02-14T12:53:19;6.53;;;5.93;;
77701;SDS011;66868;42.708;23.404;2024-02-14T12:55:46;14.55;;;7.28;;
77701;SDS011;66868;42.708;23.404;2024-02-14T12:58:12;7.80;;;6.28;;
77701;SDS011;66868;42.708;23.404;2024-02-14T13:00:37;8.45;;;6.10;;
77701;SDS011;66868;42.708;23.404;2024-02-14T13:03:03;8.10;;;6.80;;
77701;SDS011;66868;42.708;23.404;2024-02-14T13:05:29;7.53;;;6.80;;
77701;SDS011;66868;42.708;23.404;2024-02-14T13:07:55;7.60;;;6.05;;
77701;SDS011;66868;42.708;23.404;2024-02-14T13:10:21;6.10;;;5.60;;
77701;SDS011;66868;42.708;23.404;2024-02-14T13:12:47;7.35;;;5.65;;
77701;SDS011;66868;42.708;23.404;2024-02-14T13:15:12;8.55;;;6.47;;
77701;SDS011;66868;42.708;23.404;2024-02-14T13:17:38;6.63;;;5.35;;
77701;SDS011;66868;42.708;23.404;2024-02-14T13:20:03;5.80;;;5.28;;
77701;SDS011;66868;42.708;23.404;2024-02-14T13:22:30;6.25;;;5.75;;
77701;SDS011;66868;42.708;23.404;2024-02-14T13:24:55;11.60;;;5.82;;
77701;SDS011;66868;42.708;23.404;2024-02-14T13:27:25;9.05;;;5.85;;
77701;SDS011;66868;42.708;23.404;2024-02-14T13:29:51;5.93;;;5.28;;
77701;SDS011;66868;42.708;23.404;2024-02-14T13:32:17;6.88;;;6.07;;
77701;SDS011;66868;42.708;23.404;2024-02-14T13:34:42;6.47;;;5.80;;
77701;SDS011;66868;42.708;23.404;2024-02-14T13:37:09;7.72;;;5.53;;
77701;SDS011;66868;42.708;23.404;2024-02-14T13:39:34;10.00;;;5.85;;
77701;SDS011;66868;42.708;23.404;2024-02-14T13:42:00;6.28;;;5.68;;
77701;SDS011;66868;42.708;23.404;2024-02-14T13:44:26;6.28;;;5.68;;
77701;SDS011;66868;42.708;23.404;2024-02-14T13:46:52;8.05;;;5.70;;
77701;SDS011;66868;42.708;23.404;2024-02-14T13:49:18;9.43;;;6.40;;
77701;SDS011;66868;42.708;23.404;2024-02-14T13:51:50;10.70;;;6.20;;
77701;SDS011;66868;42.708;23.404;2024-02-14T13:54:16;7.72;;;6.00;;
77701;SDS011;66868;42.708;23.404;2024-02-14T13:56:46;14.23;;;6.50;;
77701;SDS011;66868;42.708;23.404;2024-02-14T13:59:13;6.18;;;5.65;;
77701;SDS011;66868;42.708;23.404;2024-02-14T14:01:39;8.20;;;5.85;;
77701;SDS011;66868;42.708;23.404;2024-02-14T14:04:05;11.35;;;6.47;;
77701;SDS011;66868;42.708;23.404;2024-02-14T14:06:31;6.55;;;5.80;;
77701;SDS011;66868;42.708;23.404;2024-02-14T14:08:56;8.32;;;5.25;;
77701;SDS011;66868;42.708;23.404;2024-02-14T14:11:22;7.35;;;5.68;;
77701;SDS011;66868;42.708;23.404;2024-02-14T14:13:48;15.43;;;6.10;;
77701;SDS011;66868;42.708;23.404;2024-02-14T14:16:14;17.10;;;6.75;;
77701;SDS011;66868;42.708;23.404;2024-02-14T14:18:39;13.68;;;6.90;;
77701;SDS011;66868;42.708;23.404;2024-02-14T14:21:05;10.95;;;5.85;;